Terminal Aerodrome Forecast
Issued by NWS Greer, SC

Home | Current Version | Previous Version | Text Only | Print | Product List | Glossary On
Versions: 1 2 3 4 5 6 7 8 9 10 11 12 13 14 15 16 17 18
631
FTUS42 KGSP 271120
TAFGSP
TAF
KGSP 271120Z 2712/2812 20006KT P6SM BKN060
     FM271600 20010G18KT P6SM VCSH OVC015
     FM271800 21010G18KT P6SM VCSH OVC015
      TEMPO 2718/2722 4SM TSRA OVC007CB
     FM272300 23007KT P6SM BKN045
     FM281000 VRB02KT 5SM BR SCT030=

USA.gov is the U.S. government's official web portal to all federal, state and local government web resources and services.